sensor_id;sensor_type;location;lat;lon;timestamp;P1;durP1;ratioP1;P2;durP2;ratioP2
78668;SDS011;67984;45.118;20.724;2024-01-30T00:00:23;44.65;;;18.10;;
78668;SDS011;67984;45.118;20.724;2024-01-30T00:10:25;42.95;;;17.45;;
78668;SDS011;67984;45.118;20.724;2024-01-30T00:20:28;55.50;;;22.48;;
78668;SDS011;67984;45.118;20.724;2024-01-30T00:30:29;62.47;;;27.45;;
78668;SDS011;67984;45.118;20.724;2024-01-30T00:40:31;59.30;;;27.40;;
78668;SDS011;67984;45.118;20.724;2024-01-30T00:50:32;39.38;;;19.27;;
78668;SDS011;67984;45.118;20.724;2024-01-30T01:00:34;44.90;;;17.45;;
78668;SDS011;67984;45.118;20.724;2024-01-30T01:10:35;34.85;;;15.00;;
78668;SDS011;67984;45.118;20.724;2024-01-30T01:20:36;31.45;;;14.10;;
78668;SDS011;67984;45.118;20.724;2024-01-30T01:30:37;27.88;;;13.32;;
78668;SDS011;67984;45.118;20.724;2024-01-30T01:40:40;30.40;;;11.25;;
78668;SDS011;67984;45.118;20.724;2024-01-30T01:50:42;33.88;;;12.18;;
78668;SDS011;67984;45.118;20.724;2024-01-30T02:00:43;28.38;;;12.88;;
78668;SDS011;67984;45.118;20.724;2024-01-30T02:10:45;25.55;;;10.75;;
78668;SDS011;67984;45.118;20.724;2024-01-30T02:20:46;19.27;;;12.40;;
78668;SDS011;67984;45.118;20.724;2024-01-30T02:30:48;22.70;;;9.80;;
78668;SDS011;67984;45.118;20.724;2024-01-30T02:40:50;18.98;;;10.00;;
78668;SDS011;67984;45.118;20.724;2024-01-30T02:50:51;18.50;;;9.45;;
78668;SDS011;67984;45.118;20.724;2024-01-30T03:00:53;20.48;;;10.82;;
78668;SDS011;67984;45.118;20.724;2024-01-30T03:10:54;23.77;;;11.18;;
78668;SDS011;67984;45.118;20.724;2024-01-30T03:20:55;19.27;;;7.97;;
78668;SDS011;67984;45.118;20.724;2024-01-30T03:30:57;23.20;;;10.18;;
78668;SDS011;67984;45.118;20.724;2024-01-30T03:40:58;19.48;;;8.45;;
78668;SDS011;67984;45.118;20.724;2024-01-30T03:51:00;22.98;;;11.90;;
78668;SDS011;67984;45.118;20.724;2024-01-30T04:01:02;23.33;;;11.57;;
78668;SDS011;67984;45.118;20.724;2024-01-30T04:11:04;27.40;;;11.60;;
78668;SDS011;67984;45.118;20.724;2024-01-30T04:21:06;25.10;;;11.85;;
78668;SDS011;67984;45.118;20.724;2024-01-30T04:31:07;49.47;;;21.63;;
78668;SDS011;67984;45.118;20.724;2024-01-30T04:41:09;20.10;;;11.52;;
78668;SDS011;67984;45.118;20.724;2024-01-30T04:51:10;40.05;;;13.82;;
78668;SDS011;67984;45.118;20.724;2024-01-30T05:01:18;68.30;;;21.15;;
78668;SDS011;67984;45.118;20.724;2024-01-30T05:11:19;38.78;;;16.40;;
78668;SDS011;67984;45.118;20.724;2024-01-30T05:21:21;29.63;;;12.57;;
78668;SDS011;67984;45.118;20.724;2024-01-30T05:31:22;48.25;;;18.25;;
78668;SDS011;67984;45.118;20.724;2024-01-30T05:41:23;100.97;;;27.38;;
78668;SDS011;67984;45.118;20.724;2024-01-30T05:51:24;34.90;;;14.25;;
78668;SDS011;67984;45.118;20.724;2024-01-30T06:01:26;23.88;;;10.07;;
78668;SDS011;67984;45.118;20.724;2024-01-30T06:11:27;23.90;;;9.13;;
78668;SDS011;67984;45.118;20.724;2024-01-30T06:21:28;19.05;;;10.25;;
78668;SDS011;67984;45.118;20.724;2024-01-30T06:31:30;24.33;;;11.50;;
78668;SDS011;67984;45.118;20.724;2024-01-30T06:41:32;31.77;;;14.80;;
78668;SDS011;67984;45.118;20.724;2024-01-30T06:51:33;29.25;;;11.75;;
78668;SDS011;67984;45.118;20.724;2024-01-30T07:01:34;27.67;;;11.88;;
78668;SDS011;67984;45.118;20.724;2024-01-30T07:11:36;23.90;;;12.45;;
78668;SDS011;67984;45.118;20.724;2024-01-30T07:21:37;32.22;;;14.48;;
78668;SDS011;67984;45.118;20.724;2024-01-30T07:31:41;25.67;;;11.82;;
78668;SDS011;67984;45.118;20.724;2024-01-30T07:41:42;20.92;;;10.63;;
78668;SDS011;67984;45.118;20.724;2024-01-30T07:51:43;28.30;;;11.50;;
78668;SDS011;67984;45.118;20.724;2024-01-30T08:01:46;29.73;;;13.70;;
78668;SDS011;67984;45.118;20.724;2024-01-30T08:11:47;19.40;;;9.45;;
78668;SDS011;67984;45.118;20.724;2024-01-30T08:21:49;21.48;;;10.52;;
78668;SDS011;67984;45.118;20.724;2024-01-30T08:31:50;22.25;;;9.75;;
78668;SDS011;67984;45.118;20.724;2024-01-30T08:41:53;20.48;;;10.32;;
78668;SDS011;67984;45.118;20.724;2024-01-30T08:51:54;14.75;;;8.13;;
78668;SDS011;67984;45.118;20.724;2024-01-30T09:01:56;24.58;;;11.30;;
78668;SDS011;67984;45.118;20.724;2024-01-30T09:11:59;13.73;;;7.30;;
78668;SDS011;67984;45.118;20.724;2024-01-30T09:22:05;21.48;;;11.52;;
78668;SDS011;67984;45.118;20.724;2024-01-30T09:32:07;12.32;;;6.35;;
78668;SDS011;67984;45.118;20.724;2024-01-30T09:42:14;24.27;;;11.68;;
78668;SDS011;67984;45.118;20.724;2024-01-30T09:52:19;23.83;;;9.73;;
78668;SDS011;67984;45.118;20.724;2024-01-30T10:02:22;52.20;;;18.98;;
78668;SDS011;67984;45.118;20.724;2024-01-30T10:12:25;75.15;;;22.17;;
78668;SDS011;67984;45.118;20.724;2024-01-30T10:22:27;156.48;;;38.55;;
78668;SDS011;67984;45.118;20.724;2024-01-30T10:32:29;241.80;;;55.30;;
78668;SDS011;67984;45.118;20.724;2024-01-30T10:42:31;240.93;;;57.10;;
78668;SDS011;67984;45.118;20.724;2024-01-30T10:52:32;83.97;;;24.67;;
78668;SDS011;67984;45.118;20.724;2024-01-30T11:02:34;41.58;;;20.17;;
78668;SDS011;67984;45.118;20.724;2024-01-30T11:12:39;30.73;;;13.25;;
78668;SDS011;67984;45.118;20.724;2024-01-30T11:22:44;20.35;;;10.45;;
78668;SDS011;67984;45.118;20.724;2024-01-30T11:32:46;51.47;;;24.00;;
78668;SDS011;67984;45.118;20.724;2024-01-30T11:42:48;68.47;;;23.55;;
78668;SDS011;67984;45.118;20.724;2024-01-30T11:52:49;102.13;;;36.08;;
78668;SDS011;67984;45.118;20.724;2024-01-30T12:02:51;17.38;;;7.65;;
78668;SDS011;67984;45.118;20.724;2024-01-30T12:12:56;277.05;;;71.00;;
78668;SDS011;67984;45.118;20.724;2024-01-30T12:22:57;18.35;;;8.93;;
78668;SDS011;67984;45.118;20.724;2024-01-30T12:32:59;8.50;;;4.45;;
78668;SDS011;67984;45.118;20.724;2024-01-30T12:43:02;36.85;;;16.48;;
78668;SDS011;67984;45.118;20.724;2024-01-30T12:53:04;37.85;;;20.10;;
78668;SDS011;67984;45.118;20.724;2024-01-30T13:03:06;199.45;;;61.45;;
78668;SDS011;67984;45.118;20.724;2024-01-30T13:13:08;14.35;;;5.72;;
78668;SDS011;67984;45.118;20.724;2024-01-30T13:23:10;10.95;;;5.80;;
78668;SDS011;67984;45.118;20.724;2024-01-30T13:33:11;11.13;;;6.15;;
78668;SDS011;67984;45.118;20.724;2024-01-30T13:43:13;27.90;;;11.88;;
78668;SDS011;67984;45.118;20.724;2024-01-30T13:53:14;12.20;;;6.68;;
78668;SDS011;67984;45.118;20.724;2024-01-30T14:03:16;15.65;;;7.88;;
78668;SDS011;67984;45.118;20.724;2024-01-30T14:13:17;12.77;;;7.32;;
78668;SDS011;67984;45.118;20.724;2024-01-30T14:23:19;12.90;;;6.50;;
78668;SDS011;67984;45.118;20.724;2024-01-30T14:33:20;10.68;;;5.60;;
78668;SDS011;67984;45.118;20.724;2024-01-30T14:43:22;12.57;;;6.63;;
78668;SDS011;67984;45.118;20.724;2024-01-30T14:53:23;12.45;;;6.25;;
78668;SDS011;67984;45.118;20.724;2024-01-30T15:03:27;9.43;;;4.50;;
78668;SDS011;67984;45.118;20.724;2024-01-30T15:13:28;16.48;;;6.88;;
78668;SDS011;67984;45.118;20.724;2024-01-30T15:23:29;14.15;;;6.03;;
78668;SDS011;67984;45.118;20.724;2024-01-30T15:33:31;96.43;;;32.80;;
78668;SDS011;67984;45.118;20.724;2024-01-30T15:43:33;145.32;;;55.83;;
78668;SDS011;67984;45.118;20.724;2024-01-30T15:53:35;127.85;;;49.38;;
78668;SDS011;67984;45.118;20.724;2024-01-30T16:03:37;197.88;;;76.28;;
78668;SDS011;67984;45.118;20.724;2024-01-30T16:13:39;141.35;;;47.95;;
78668;SDS011;67984;45.118;20.724;2024-01-30T16:23:41;148.38;;;53.72;;
78668;SDS011;67984;45.118;20.724;2024-01-30T16:33:44;147.45;;;60.00;;
78668;SDS011;67984;45.118;20.724;2024-01-30T16:43:45;143.30;;;53.28;;
78668;SDS011;67984;45.118;20.724;2024-01-30T16:53:47;162.23;;;57.78;;
78668;SDS011;67984;45.118;20.724;2024-01-30T17:03:49;177.93;;;66.75;;
78668;SDS011;67984;45.118;20.724;2024-01-30T17:13:50;158.15;;;60.47;;
78668;SDS011;67984;45.118;20.724;2024-01-30T17:23:51;128.45;;;47.63;;
78668;SDS011;67984;45.118;20.724;2024-01-30T17:33:53;195.45;;;68.35;;
78668;SDS011;67984;45.118;20.724;2024-01-30T17:43:54;176.40;;;60.00;;
78668;SDS011;67984;45.118;20.724;2024-01-30T17:53:56;129.25;;;38.78;;
78668;SDS011;67984;45.118;20.724;2024-01-30T18:03:57;149.13;;;48.67;;
78668;SDS011;67984;45.118;20.724;2024-01-30T18:24:00;67.80;;;25.35;;
78668;SDS011;67984;45.118;20.724;2024-01-30T18:34:02;63.72;;;24.08;;
78668;SDS011;67984;45.118;20.724;2024-01-30T18:44:03;62.65;;;25.52;;
78668;SDS011;67984;45.118;20.724;2024-01-30T18:54:04;36.75;;;15.90;;
78668;SDS011;67984;45.118;20.724;2024-01-30T19:04:05;134.70;;;46.80;;
78668;SDS011;67984;45.118;20.724;2024-01-30T19:14:08;84.10;;;34.90;;
78668;SDS011;67984;45.118;20.724;2024-01-30T19:24:10;127.00;;;46.50;;
78668;SDS011;67984;45.118;20.724;2024-01-30T19:34:12;66.38;;;23.58;;
78668;SDS011;67984;45.118;20.724;2024-01-30T19:44:13;44.05;;;18.02;;
78668;SDS011;67984;45.118;20.724;2024-01-30T19:54:14;49.45;;;21.00;;
78668;SDS011;67984;45.118;20.724;2024-01-30T20:04:19;45.85;;;20.00;;
78668;SDS011;67984;45.118;20.724;2024-01-30T20:14:20;52.53;;;20.40;;
78668;SDS011;67984;45.118;20.724;2024-01-30T20:24:21;39.67;;;17.23;;
78668;SDS011;67984;45.118;20.724;2024-01-30T20:34:23;35.25;;;16.95;;
78668;SDS011;67984;45.118;20.724;2024-01-30T20:44:24;40.78;;;17.52;;
78668;SDS011;67984;45.118;20.724;2024-01-30T20:54:25;81.28;;;24.98;;
78668;SDS011;67984;45.118;20.724;2024-01-30T21:04:27;77.38;;;27.23;;
78668;SDS011;67984;45.118;20.724;2024-01-30T21:14:28;87.80;;;26.65;;
78668;SDS011;67984;45.118;20.724;2024-01-30T21:24:30;80.25;;;29.88;;
78668;SDS011;67984;45.118;20.724;2024-01-30T21:34:31;188.05;;;48.40;;
78668;SDS011;67984;45.118;20.724;2024-01-30T21:44:33;161.82;;;44.67;;
78668;SDS011;67984;45.118;20.724;2024-01-30T21:54:34;54.78;;;22.10;;
78668;SDS011;67984;45.118;20.724;2024-01-30T22:04:36;59.22;;;22.05;;
78668;SDS011;67984;45.118;20.724;2024-01-30T22:14:37;38.28;;;16.23;;
78668;SDS011;67984;45.118;20.724;2024-01-30T22:24:39;37.25;;;17.50;;
78668;SDS011;67984;45.118;20.724;2024-01-30T22:34:40;23.92;;;12.60;;
78668;SDS011;67984;45.118;20.724;2024-01-30T22:44:41;28.23;;;14.98;;
78668;SDS011;67984;45.118;20.724;2024-01-30T22:54:43;26.00;;;12.75;;
78668;SDS011;67984;45.118;20.724;2024-01-30T23:04:44;24.40;;;11.95;;
78668;SDS011;67984;45.118;20.724;2024-01-30T23:14:45;32.05;;;15.02;;
78668;SDS011;67984;45.118;20.724;2024-01-30T23:24:47;26.15;;;11.15;;
78668;SDS011;67984;45.118;20.724;2024-01-30T23:34:49;20.42;;;10.75;;
78668;SDS011;67984;45.118;20.724;2024-01-30T23:44:50;21.88;;;10.60;;
78668;SDS011;67984;45.118;20.724;2024-01-30T23:54:52;17.27;;;8.75;;
